Terminal Aerodrome Forecast
Issued by NWS

Home | Current Version | Previous Version | Text Only | Print | Product List | Glossary On
Versions: 1 2 3 4 5 6 7 8 9 10 11 12 13 14 15 16 17 18 19 20 21 22 23 24 25 26 27
219
FTUS44 KFWD 271325 AAA
TAFGKY
TAF AMD
KGKY 271325Z 2713/2812 17013KT P6SM BKN018
     FM271600 19016KT P6SM BKN035
     FM271800 19017KT P6SM FEW045 BKN250
     FM280800 23010KT 6SM -SHRA VCTS BKN050CB=

USA.gov is the U.S. government's official web portal to all federal, state and local government web resources and services.